createdAt,value
2023-05-05T00:33:45.857Z,314
2023-05-05T00:53:45.902Z,311
2023-05-05T01:13:45.933Z,312
2023-05-05T01:33:45.928Z,316
2023-05-05T01:53:45.780Z,310
2023-05-05T02:33:46.030Z,307
2023-05-05T02:53:46.059Z,303
2023-05-05T03:13:46.101Z,307
2023-05-05T03:33:46.110Z,308
2023-05-05T03:53:46.156Z,306
2023-05-05T04:13:46.194Z,305
2023-05-05T04:33:46.023Z,311
2023-05-05T04:53:46.227Z,315
2023-05-05T05:13:46.264Z,315
2023-05-05T05:33:46.316Z,317
2023-05-05T05:53:46.344Z,322
2023-05-05T06:13:46.381Z,323
2023-05-05T06:33:46.380Z,327
2023-05-05T06:53:46.432Z,335
2023-05-05T07:13:46.463Z,338
2023-05-05T07:33:46.479Z,339
2023-05-05T07:53:46.502Z,336
2023-05-05T08:13:46.334Z,332
2023-05-05T08:33:46.580Z,336
2023-05-05T08:53:46.484Z,332
2023-05-05T09:13:46.474Z,331
2023-05-05T09:33:46.494Z,330
2023-05-05T09:53:46.542Z,326
2023-05-05T10:13:46.562Z,325
2023-05-05T10:33:46.582Z,326
2023-05-05T10:53:46.634Z,322
2023-05-05T11:13:46.587Z,320
2023-05-05T11:33:46.638Z,319
2023-05-05T11:53:46.702Z,314
2023-05-05T12:13:46.660Z,310
2023-05-05T12:33:46.779Z,314
2023-05-05T12:53:46.800Z,316
2023-05-05T13:13:46.834Z,320
2023-05-05T13:33:46.852Z,323
2023-05-05T13:53:46.758Z,322
2023-05-05T14:13:47.008Z,323
2023-05-05T14:33:46.929Z,323
2023-05-05T14:53:46.960Z,321
2023-05-05T15:13:46.878Z,322
2023-05-05T15:33:46.987Z,313
2023-05-05T15:53:46.998Z,319
2023-05-05T16:13:47.070Z,321
2023-05-05T16:33:47.053Z,323
2023-05-05T16:53:48.343Z,325
2023-05-05T17:13:47.097Z,325
2023-05-05T17:33:46.936Z,327
2023-05-05T17:53:47.163Z,326
2023-05-05T18:13:47.196Z,332
2023-05-05T18:33:47.773Z,333
2023-05-05T18:53:47.048Z,331
2023-05-05T19:13:47.277Z,327
2023-05-05T19:33:47.283Z,330
2023-05-05T19:53:47.096Z,327
2023-05-05T20:13:47.153Z,328
2023-05-05T20:33:47.387Z,333
2023-05-05T20:53:47.423Z,347
2023-05-05T21:13:47.418Z,352
2023-05-05T21:33:47.472Z,352
2023-05-05T21:53:47.480Z,348
2023-05-05T22:13:47.523Z,342
2023-05-05T22:33:47.363Z,339
2023-05-05T23:13:47.623Z,334
2023-05-05T23:33:47.651Z,331
2023-05-05T23:53:47.573Z,330
